Latest Weather Observations for White Cliffs AWS

IDN60801

Issued at 9:33 am EST Saturday 30 July 2016 (issued every 30 minutes, with the page automatically refreshed every 10 minutes)

About weather observations | Map of weather stations | Latest weather observations for NSW | Other Formats
Station Details ID: 046129 Name: WHITE CLIFFS AWS Lat: -30.85 Lon: 143.07 Height: 158.0 m
Data from the previous 72 hours. | See also: Recent months at White Cliffs AWS
Date/Time
EST
Temp
°C
App
Temp
°C
Dew
Point
°C
Rel
Hum
%
Delta-T
°C
Wind Press
QNH
hPa
Press
MSL
hPa
Rain since
9am
mm
Dir  Spd
km/h
Gust
km/h
Spd
kts
Gust
kts
30/09:30am 12.6 9.7 6.4 66 3.0 NNE 11 15 6 8 1024.0 1024.1 0.0
30/09:00am 11.0 9.4 6.2 72 2.3 N 4 7 2 4 1024.0 1024.1 0.0
30/08:30am 8.8 7.8 5.5 80 1.5 CALM 0 0 0 0 1024.0 1024.1 0.0
30/08:00am 6.8 4.5 4.6 86 1.0 NNW 6 7 3 4 1024.0 1024.1 0.0
30/07:30am 5.6 3.0 4.1 90 0.6 NNW 7 9 4 5 1023.8 1023.9 0.0
30/07:00am 5.5 2.8 3.8 89 0.7 NW 7 9 4 5 1023.5 1023.6 0.0
30/06:30am 5.6 4.2 3.8 88 0.8 CALM 0 0 0 0 1023.2 1023.3 0.0
30/06:00am 5.7 4.3 3.7 87 0.8 CALM 0 0 0 0 1022.7 1022.9 0.0
30/05:30am 5.7 4.3 3.7 87 0.8 CALM 0 0 0 0 1022.8 1023.0 0.0
30/05:00am 5.9 4.6 3.9 87 0.9 CALM 0 0 0 0 1022.8 1023.0 0.0
30/04:30am 5.8 4.4 3.6 86 0.9 CALM 0 0 0 0 1023.2 1023.3 0.0
30/04:00am 5.8 4.4 3.5 85 1.0 CALM 0 0 0 0 1023.3 1023.4 0.0
30/03:30am 6.0 4.6 3.5 84 1.1 CALM 0 0 0 0 1023.2 1023.3 0.0
30/03:00am 6.4 5.0 3.6 82 1.2 CALM 0 0 0 0 1023.3 1023.4 0.0
30/02:30am 7.4 6.2 4.5 82 1.3 CALM 0 0 0 0 1023.3 1023.4 0.0
30/02:00am 7.4 6.0 3.8 78 1.5 CALM 0 6 0 3 1023.6 1023.7 0.0
30/01:30am 8.2 5.6 4.0 75 1.8 ENE 7 9 4 5 1023.8 1023.9 0.0
30/01:00am 8.5 5.5 4.3 75 1.8 E 9 11 5 6 1023.8 1023.9 0.0
30/12:30am 8.4 5.4 4.2 75 1.9 E 9 11 5 6 1024.0 1024.1 0.0
30/12:00am 8.7 5.3 4.1 73 2.0 E 11 11 6 6 1024.2 1024.3 0.0
 
Date/Time
EST
Temp
°C
App
Temp
°C
Dew
Point
°C
Rel
Hum
%
Delta-T
°C
Wind Press
QNH
hPa
Press
MSL
hPa
Rain since
9am
mm
Dir  Spd
km/h
Gust
km/h
Spd
kts
Gust
kts
29/11:30pm 8.4 5.0 4.0 74 1.9 E 11 13 6 7 1024.4 1024.5 0.0
29/11:00pm 8.7 5.3 3.9 72 2.1 ESE 11 13 6 7 1024.5 1024.6 0.0
29/10:30pm 10.3 6.7 4.9 69 2.5 ESE 13 13 7 7 1024.6 1024.7 0.0
29/10:00pm 10.4 7.5 4.5 67 2.6 ESE 9 9 5 5 1024.5 1024.6 0.0
29/09:30pm 10.5 8.2 4.9 68 2.6 ENE 6 6 3 3 1024.5 1024.6 0.0
29/09:00pm 10.9 8.4 4.8 66 2.8 E 7 7 4 4 1024.3 1024.4 0.0
29/08:30pm 10.6 8.1 4.7 67 2.7 E 7 9 4 5 1024.1 1024.2 0.0
29/08:00pm 11.6 8.7 4.6 62 3.2 ESE 9 9 5 5 1024.0 1024.1 0.0
29/07:30pm 12.3 9.4 4.8 60 3.5 E 9 11 5 6 1023.8 1023.9 0.0
29/07:00pm 12.6 10.3 4.6 58 3.7 ESE 6 9 3 5 1023.7 1023.8 0.0
29/06:30pm 13.2 10.9 4.6 56 4.0 ESE 6 7 3 4 1023.5 1023.6 0.0
29/06:00pm 14.4 13.2 4.7 52 4.5 CALM 0 4 0 2 1023.4 1023.5 0.0
29/05:30pm 15.5 13.1 4.3 47 5.3 ESE 6 7 3 4 1023.2 1023.3 0.0
29/05:00pm 16.3 13.7 4.4 45 5.6 SSW 7 13 4 7 1023.4 1023.5 0.0
29/04:30pm 16.3 13.4 4.7 46 5.5 S 9 19 5 10 1023.5 1023.6 0.0
29/04:00pm 16.5 13.1 4.2 44 5.8 SW 11 19 6 10 1023.5 1023.6 0.0
29/03:30pm 16.7 13.4 4.7 45 5.7 SW 11 19 6 10 1023.6 1023.7 0.0
29/03:00pm 15.9 12.9 4.3 46 5.4 SSE 9 15 5 8 1023.7 1023.8 0.0
29/02:30pm 16.4 14.0 4.4 45 5.7 SW 6 15 3 8 1023.8 1023.9 0.0
29/02:00pm 16.0 13.7 5.0 48 5.2 SSW 6 13 3 7 1024.1 1024.2 0.0
29/01:30pm 15.9 14.1 5.5 50 5.0 SW 4 9 2 5 1024.6 1024.7 0.0
29/01:00pm 15.6 13.3 5.5 51 4.8 ENE 7 13 4 7 1024.9 1025.0 0.0
29/12:30pm 15.1 12.8 4.8 50 4.9 SE 6 11 3 6 1025.6 1025.7 0.0
29/12:00pm 14.9 12.4 4.9 51 4.7 ESE 7 11 4 6 1026.0 1026.1 0.0
29/11:30am 14.2 11.4 5.3 55 4.2 ENE 9 15 5 8 1026.7 1026.8 0.0
29/11:00am 13.3 10.6 5.5 59 3.7 E 9 13 5 7 1027.2 1027.3 0.0
29/10:30am 12.4 9.4 6.0 65 3.0 E 11 15 6 8 1027.3 1027.4 0.0
29/10:00am 11.1 8.0 5.4 68 2.6 E 11 15 6 8 1027.4 1027.5 0.0
29/09:30am 10.1 6.5 5.1 71 2.3 ESE 13 17 7 9 1027.6 1027.8 0.0
29/09:00am 9.4 5.8 5.0 74 2.0 E 13 19 7 10 1027.2 1027.3 0.0
29/08:30am 8.4 5.6 5.2 80 1.4 E 9 13 5 7 1027.1 1027.2 0.0
29/08:00am 6.9 3.6 4.4 84 1.1 E 11 13 6 7 1027.0 1027.1 0.0
29/07:30am 5.2 1.7 3.5 89 0.7 ESE 11 13 6 7 1026.8 1026.9 0.0
29/07:00am 5.3 2.2 3.6 89 0.7 ESE 9 9 5 5 1026.8 1026.9 0.0
29/06:30am 4.8 1.6 3.1 89 0.7 SSE 9 11 5 6 1026.5 1026.6 0.0
29/06:00am 4.7 1.1 3.0 89 0.7 S 11 13 6 7 1026.5 1026.6 0.0
29/05:30am 4.3 2.3 2.5 88 0.7 SSE 2 7 1 4 1026.2 1026.3 0.0
29/05:00am 5.7 2.8 2.7 81 1.2 E 7 9 4 5 1026.1 1026.2 0.0
29/04:30am 6.8 3.8 4.1 83 1.2 ESE 9 9 5 5 1025.9 1026.0 0.0
29/04:00am 6.7 4.1 4.0 83 1.2 E 7 9 4 5 1026.0 1026.1 0.0
29/03:30am 6.1 3.3 3.4 83 1.1 E 7 9 4 5 1026.1 1026.2 0.0
29/03:00am 6.7 3.7 4.0 83 1.2 E 9 9 5 5 1026.2 1026.3 0.0
29/02:30am 6.8 4.1 3.9 82 1.3 E 7 9 4 5 1026.5 1026.6 0.0
29/02:00am 6.6 3.5 3.4 80 1.4 E 9 9 5 5 1026.7 1026.8 0.0
29/01:30am 7.1 4.1 3.9 80 1.4 ESE 9 11 5 6 1026.9 1027.0 0.0
29/01:00am 7.2 3.8 3.8 79 1.5 E 11 11 6 6 1026.8 1026.9 0.0
29/12:30am 6.8 3.7 3.4 79 1.4 E 9 11 5 6 1027.0 1027.1 0.0
29/12:00am 7.2 4.1 3.6 78 1.5 E 9 9 5 5 1027.0 1027.1 0.0
 
Date/Time
EST
Temp
°C
App
Temp
°C
Dew
Point
°C
Rel
Hum
%
Delta-T
°C
Wind Press
QNH
hPa
Press
MSL
hPa
Rain since
9am
mm
Dir  Spd
km/h
Gust
km/h
Spd
kts
Gust
kts
28/11:30pm 7.6 4.2 3.8 77 1.6 E 11 11 6 6 1027.2 1027.3 0.0
28/11:00pm 8.6 5.9 3.6 71 2.2 ESE 7 11 4 6 1027.3 1027.4 0.0
28/10:30pm 10.0 6.3 4.2 67 2.6 SE 13 15 7 8 1027.5 1027.7 0.0
28/10:00pm 10.3 6.6 4.2 66 2.7 SE 13 17 7 9 1027.6 1027.8 0.0
28/09:30pm 10.4 6.3 4.1 65 2.8 SE 15 15 8 8 1027.7 1027.9 0.0
28/09:00pm 10.4 7.1 4.3 66 2.7 SSE 11 13 6 7 1027.8 1028.0 0.0
28/08:30pm 10.3 6.9 4.2 66 2.7 SSE 11 11 6 6 1028.0 1028.2 0.0
28/08:00pm 10.5 7.2 4.4 66 2.7 SSE 11 13 6 7 1027.8 1028.0 0.0
28/07:30pm 11.1 7.4 4.3 63 3.1 SSE 13 13 7 7 1027.4 1027.5 0.0
28/07:00pm 11.5 8.2 4.3 61 3.2 SE 11 11 6 6 1027.1 1027.2 0.0
28/06:30pm 12.3 8.9 4.0 57 3.8 S 11 13 6 7 1026.9 1027.0 0.0
28/06:00pm 13.4 10.0 4.0 53 4.3 S 11 13 6 7 1026.6 1026.7 0.0
28/05:30pm 14.6 10.8 4.0 49 4.9 S 13 15 7 8 1026.4 1026.5 0.0
28/05:00pm 15.1 11.2 3.6 46 5.3 SSE 13 17 7 9 1026.1 1026.2 0.0
28/04:30pm 15.3 11.9 4.1 47 5.2 SSW 11 17 6 9 1026.3 1026.4 0.0
28/04:00pm 15.4 11.7 4.2 47 5.2 S 13 20 7 11 1026.5 1026.6 0.0
28/03:30pm 15.3 12.2 3.8 46 5.3 SSE 9 19 5 10 1026.8 1026.9 0.0
28/03:00pm 15.1 11.7 4.2 48 5.0 S 11 17 6 9 1027.1 1027.2 0.0
28/02:30pm 14.5 11.1 3.9 49 4.9 S 11 15 6 8 1027.4 1027.5 0.0
28/02:00pm 14.4 11.3 3.8 49 4.8 S 9 17 5 9 1027.7 1027.9 0.0
28/01:30pm 14.1 11.5 4.1 51 4.6 SW 7 11 4 6 1028.3 1028.5 0.0
28/01:00pm 14.3 11.0 4.6 52 4.5 ESE 11 17 6 9 1028.7 1028.9 0.0
28/12:30pm 13.9 10.8 3.7 50 4.7 SE 9 15 5 8 1029.2 1029.4 0.0
28/12:00pm 13.2 9.8 3.8 53 4.2 ESE 11 17 6 9 1029.8 1029.9 0.0
28/11:30am 12.9 9.5 4.1 55 4.0 E 11 19 6 10 1030.2 1030.3 0.0
28/11:00am 12.8 9.5 4.5 57 3.8 E 11 20 6 11 1030.4 1030.5 0.0
28/10:30am 11.9 9.0 4.6 61 3.3 E 9 15 5 8 1030.6 1030.7 0.0
28/10:00am 10.8 8.3 4.7 66 2.8 SSE 7 11 4 6 1030.7 1030.8 0.0
28/09:30am 9.4 6.1 4.4 71 2.2 S 11 15 6 8 1030.7 1030.8 0.0
28/09:00am 8.5 4.8 4.3 75 1.8 S 13 17 7 9 1030.4 1030.5 0.0
28/08:30am 7.4 4.4 4.2 80 1.4 SSW 9 11 5 6 1030.2 1030.3 0.0
28/08:00am 6.1 3.0 3.8 85 1.0 SSW 9 13 5 7 1029.4 1029.6 0.0
28/07:30am 4.9 1.0 3.2 89 0.7 SSW 13 13 7 7 1029.2 1029.4 0.0
28/07:00am 5.0 1.1 3.2 88 0.7 SSW 13 13 7 7 1028.9 1029.1 0.0
28/06:30am 5.6 1.3 3.4 86 0.9 S 15 17 8 9 1028.4 1028.6 0.0
28/06:00am 5.3 1.4 3.2 86 0.9 SSW 13 15 7 8 1027.9 1028.1 0.0
28/05:30am 5.5 1.6 3.3 86 0.9 S 13 15 7 8 1027.7 1027.9 0.0
28/05:00am 5.5 1.6 3.2 85 1.0 SSW 13 15 7 8 1027.5 1027.7 0.0
28/04:30am 5.3 2.1 2.8 84 1.0 S 9 11 5 6 1027.2 1027.3 0.0
28/04:00am 6.2 2.3 3.5 83 1.1 S 13 13 7 7 1027.0 1027.1 0.0
28/03:30am 6.4 2.6 3.7 83 1.2 S 13 15 7 8 1026.9 1027.0 0.0
28/03:00am 6.5 3.0 3.7 82 1.2 S 11 13 6 7 1026.8 1026.9 0.0
28/02:30am 6.8 3.8 3.9 82 1.3 S 9 11 5 6 1026.9 1027.0 0.0
28/02:00am 6.7 2.4 3.5 80 1.4 S 15 15 8 8 1026.9 1027.0 0.0
28/01:30am 7.2 4.1 3.6 78 1.5 S 9 11 5 6 1027.3 1027.4 0.0
28/01:00am 7.7 5.0 3.9 77 1.6 SSE 7 9 4 5 1027.3 1027.4 0.0
28/12:30am 7.6 4.5 3.8 77 1.6 SSE 9 11 5 6 1027.4 1027.5 0.0
28/12:00am 7.9 4.9 3.9 76 1.7 SSE 9 11 5 6 1027.5 1027.7 0.0
 
Date/Time
EST
Temp
°C
App
Temp
°C
Dew
Point
°C
Rel
Hum
%
Delta-T
°C
Wind Press
QNH
hPa
Press
MSL
hPa
Rain since
9am
mm
Dir  Spd
km/h
Gust
km/h
Spd
kts
Gust
kts
27/11:30pm 8.4 5.1 4.4 76 1.8 S 11 11 6 6 1027.5 1027.7 0.0
27/11:00pm 8.7 5.4 4.3 74 1.9 S 11 13 6 7 1027.4 1027.5 0.0
27/10:30pm 9.5 5.8 4.3 70 2.3 S 13 15 7 8 1027.2 1027.3 0.0
27/10:00pm 9.7 6.7 4.3 69 2.4 S 9 11 5 6 1026.9 1027.0 0.0
27/09:30pm 10.3 7.3 4.2 66 2.7 S 9 11 5 6 1026.7 1026.8 0.0
27/09:00pm 11.4 7.7 4.2 61 3.2 SSW 13 15 7 8 1026.7 1026.8 0.0
27/08:30pm 12.2 7.3 4.2 58 3.6 SSW 19 24 10 13 1026.4 1026.5 0.0
27/08:00pm 13.0 8.6 4.9 58 3.7 SSW 17 24 9 13 1026.1 1026.2 0.0
27/07:30pm 12.6 8.0 5.5 62 3.3 SSW 19 22 10 12 1025.6 1025.7 0.0
27/07:00pm 13.1 8.4 5.3 59 3.6 SSW 19 24 10 13 1025.0 1025.1 0.0
27/06:30pm 14.2 8.8 4.5 52 4.5 SSW 22 28 12 15 1024.6 1024.7 0.0
27/06:00pm 14.7 9.7 4.7 51 4.7 SW 20 26 11 14 1024.1 1024.2 0.0
27/05:30pm 15.1 8.5 4.2 48 5.1 SW 28 33 15 18 1023.8 1023.9 0.0
27/05:00pm 16.3 10.9 4.4 45 5.6 SW 22 28 12 15 1023.3 1023.4 0.0
27/04:30pm 16.4 11.4 4.8 46 5.5 WSW 20 26 11 14 1022.9 1023.1 0.0
27/04:00pm 15.9 10.8 4.3 46 5.4 SW 20 26 11 14 1022.5 1022.7 0.0
27/03:30pm 15.9 10.5 4.3 46 5.5 SW 22 26 12 14 1022.4 1022.6 0.0
27/03:00pm 15.9 11.5 4.6 47 5.3 SSW 17 24 9 13 1022.2 1022.4 0.0
27/02:30pm 16.4 11.6 4.8 46 5.5 SW 19 26 10 14 1022.4 1022.6 0.0
27/02:00pm 17.4 12.6 5.7 46 5.7 SSW 20 30 11 16 1022.3 1022.5 0.0
27/01:30pm 16.0 11.0 4.7 47 5.4 SSW 20 32 11 17 1022.2 1022.4 0.0
27/01:00pm 15.7 10.9 4.7 48 5.2 SW 19 37 10 20 1022.2 1022.4 0.0
27/12:30pm 15.7 10.7 4.7 48 5.2 SW 20 30 11 16 1022.4 1022.6 0.0
27/12:00pm 14.8 9.9 5.1 52 4.6 SW 20 28 11 15 1022.4 1022.6 0.0
27/11:30am 14.3 9.1 5.7 56 4.1 SW 22 30 12 16 1022.4 1022.6 0.0
27/11:00am 14.0 8.5 6.1 59 3.8 SW 24 32 13 17 1022.5 1022.7 0.0
27/10:30am 14.0 8.5 6.1 59 3.8 SW 24 30 13 16 1022.5 1022.7 0.0
27/10:00am 13.3 8.3 6.4 63 3.3 WSW 22 28 12 15 1022.2 1022.4 0.0

Other Formats:

Comma delimited format used in spreadsheet applications
http://www.bom.gov.au/fwo/IDN60801/IDN60801.95699.axf

JavaScript Object Notation format (JSON) in row-major order
http://www.bom.gov.au/fwo/IDN60801/IDN60801.95699.json